Time;durP1;ratioP1;P1;durP2;ratioP2;P2;SDS_P1;SDS_P2;PMS_P1;PMS_P2;Temp;Humidity;BMP_temperature;BMP_pressure;BME280_temperature;BME280_humidity;BME280_pressure;Samples;Min_cycle;Max_cycle;Signal;HPM_P1;HPM_P2
2023/03/28 00:01:12;;;;;;;14.38;5.47;;;6.70;99.90;;;6.88;68.27;102548.00;4993637;28;20038;-69
2023/03/28 00:03:41;;;;;;;14.40;5.60;;;6.70;99.90;;;6.82;67.76;102534.63;4993427;28;20476;-68
2023/03/28 00:06:11;;;;;;;15.63;5.53;;;6.70;99.90;;;6.88;67.30;102546.28;4993391;28;20073;-68
2023/03/28 00:08:41;;;;;;;10.45;5.65;;;6.70;99.90;;;6.47;66.91;102446.56;4993468;28;20122;-68
2023/03/28 00:11:17;;;;;;;11.57;5.18;;;6.80;99.90;;;6.93;67.67;102544.72;4993577;28;20123;-69
2023/03/28 00:13:46;;;;;;;12.00;5.38;;;6.80;99.90;;;6.91;68.58;102545.50;4993658;28;20116;-68
2023/03/28 00:16:15;;;;;;;9.82;4.93;;;6.70;99.90;;;6.90;68.46;102538.44;4993255;28;20081;-68
2023/03/28 00:18:43;;;;;;;9.32;5.43;;;6.70;99.90;;;6.94;68.51;102549.16;4993233;28;20559;-68
2023/03/28 00:21:23;;;;;;;15.23;6.13;;;6.70;99.90;;;6.99;68.16;102541.41;4993265;28;20042;-68
2023/03/28 00:23:55;;;;;;;13.18;5.78;;;6.80;99.90;;;7.02;67.62;102541.53;4993451;28;20077;-68
2023/03/28 00:26:25;;;;;;;14.80;6.22;;;6.80;99.90;;;6.96;67.60;102539.56;4991883;28;20097;-69
2023/03/28 00:28:55;;;;;;;9.93;5.20;;;6.80;99.90;;;6.90;69.15;102554.22;4992243;28;20046;-68
2023/03/28 00:31:25;;;;;;;10.30;5.07;;;6.80;99.90;;;6.86;69.58;102537.44;4993107;28;20073;-69
2023/03/28 00:33:55;;;;;;;7.72;5.18;;;6.70;99.90;;;6.71;70.47;102526.34;4993081;28;20052;-69
2023/03/28 00:36:28;;;;;;;9.68;5.38;;;6.60;99.90;;;6.66;70.96;102545.44;4993322;28;20042;-68
2023/03/28 00:39:00;;;;;;;10.77;6.22;;;6.50;99.90;;;6.70;71.26;102539.41;4993034;28;20054;-69
2023/03/28 00:41:31;;;;;;;16.65;6.25;;;6.50;99.90;;;6.75;70.53;102530.00;4993267;28;20047;-68
2023/03/28 00:44:01;;;;;;;11.23;5.60;;;6.50;99.90;;;6.68;71.35;102533.22;4993072;28;20061;-68
2023/03/28 00:46:34;;;;;;;10.02;5.47;;;6.50;99.90;;;6.61;71.58;102526.84;4992088;28;20475;-69
2023/03/28 00:49:07;;;;;;;11.48;6.18;;;6.40;99.90;;;6.56;72.36;102553.78;4995792;28;20407;-68
2023/03/28 00:51:40;;;;;;;10.57;5.68;;;6.30;99.90;;;6.45;73.09;102526.16;4995513;28;20053;-68
2023/03/28 00:54:14;;;;;;;9.15;5.32;;;6.20;99.90;;;6.14;73.96;102524.97;4997094;28;20128;-69
2023/03/28 00:56:46;;;;;;;9.75;5.38;;;5.90;99.90;;;6.08;74.06;102527.34;4996950;28;20046;-69
2023/03/28 00:59:19;;;;;;;13.40;5.93;;;5.80;99.90;;;5.91;74.24;102531.03;4995830;28;20051;-68
2023/03/28 01:01:49;;;;;;;13.10;5.38;;;5.70;99.90;;;5.86;74.16;102506.34;4995320;28;20050;-68
2023/03/28 01:04:21;;;;;;;12.63;6.18;;;5.60;99.90;;;5.95;74.12;102529.44;4995564;28;20054;-68
2023/03/28 01:06:54;;;;;;;10.85;5.95;;;5.60;99.90;;;5.79;73.43;102519.97;4995448;28;20432;-68
2023/03/28 01:09:25;;;;;;;9.45;5.28;;;5.60;99.90;;;5.76;73.31;102506.75;4995565;28;20166;-68
2023/03/28 01:11:57;;;;;;;11.07;5.57;;;5.50;99.90;;;5.75;73.92;102518.06;4995333;28;20104;-68
2023/03/28 01:14:28;;;;;;;14.90;6.18;;;5.50;99.90;;;5.75;74.16;102515.44;4995228;28;20481;-68
2023/03/28 01:16:59;;;;;;;11.43;6.47;;;5.50;99.90;;;5.93;73.55;102508.38;4995415;28;20415;-68
2023/03/28 01:19:46;;;;;;;14.25;5.50;;;5.60;99.90;;;5.95;72.38;102509.31;4995405;28;20405;-68
2023/03/28 01:22:49;;;;;;;11.52;5.75;;;5.70;99.90;;;6.00;72.22;102499.00;4995568;28;20081;-68
2023/03/28 01:26:10;;;;;;;11.75;4.95;;;5.80;99.90;;;5.99;71.40;102503.34;4995310;28;20054;-68
2023/03/28 01:29:13;;;;;;;10.15;5.75;;;5.80;99.90;;;6.00;71.00;102504.25;4995086;28;20061;-69
2023/03/28 01:32:05;;;;;;;13.48;6.07;;;5.80;99.90;;;5.93;71.09;102481.19;4995159;28;20043;-68
2023/03/28 01:35:53;;;;;;;11.00;5.68;;;5.80;99.90;;;6.14;70.27;102500.44;4995806;28;20058;-68
2023/03/28 01:38:30;;;;;;;11.18;5.55;;;5.90;99.90;;;6.08;69.84;102493.22;4996257;28;20126;-68
2023/03/28 01:41:09;;;;;;;8.55;5.30;;;6.00;99.90;;;6.20;69.52;102509.47;4996072;28;20053;-69
2023/03/28 01:43:53;;;;;;;12.80;5.65;;;6.00;99.90;;;6.24;69.10;102503.50;4994477;28;20427;-68
2023/03/28 01:46:28;;;;;;;14.13;5.95;;;6.10;99.90;;;6.28;69.03;102501.88;4995072;28;20056;-68
2023/03/28 01:49:04;;;;;;;11.07;5.57;;;6.10;99.90;;;6.28;68.77;102501.88;4996365;28;20496;-68
2023/03/28 01:51:49;;;;;;;12.60;5.80;;;6.10;99.90;;;5.84;68.48;102429.22;4994785;28;20050;-68
2023/03/28 01:54:29;;;;;;;11.23;5.32;;;6.10;99.90;;;6.26;68.75;102504.47;4995709;28;20084;-68
2023/03/28 01:57:09;;;;;;;15.65;6.57;;;6.10;99.90;;;6.36;68.59;102501.34;4994701;28;20058;-69
2023/03/28 01:59:42;;;;;;;13.73;5.65;;;6.10;99.90;;;6.43;68.39;102506.84;4994515;28;20097;-68
2023/03/28 02:02:33;;;;;;;8.38;5.38;;;6.20;99.90;;;6.30;68.96;102503.75;4995547;28;20046;-68
2023/03/28 02:05:13;;;;;;;8.57;5.45;;;6.10;99.90;;;6.28;69.88;102504.50;4994494;28;20060;-69
2023/03/28 02:07:47;;;;;;;13.15;6.00;;;6.10;99.90;;;6.22;71.20;102505.16;5010627;28;20141;-68
2023/03/28 02:10:22;;;;;;;11.10;4.90;;;6.00;99.90;;;6.20;71.38;102501.59;4994258;28;20046;-68
2023/03/28 02:13:30;;;;;;;10.18;5.68;;;5.90;99.90;;;6.13;72.88;102496.94;4972839;28;20050;-69
2023/03/28 02:16:07;;;;;;;12.48;6.15;;;5.90;99.90;;;6.08;73.23;102498.47;4994309;28;20412;-68
2023/03/28 02:19:02;;;;;;;10.20;6.45;;;5.90;99.90;;;5.78;73.32;102460.44;4972382;28;20054;-68
2023/03/28 02:22:04;;;;;;;8.75;5.95;;;5.80;99.90;;;5.90;73.66;102484.63;4994169;28;20161;-68
2023/03/28 02:24:58;;;;;;;;;;;5.70;99.90;;;5.92;73.68;102485.53;4992031;28;20046;-68
2023/03/28 02:27:35;;;;;;;11.70;6.07;;;5.70;99.90;;;5.81;74.21;102481.56;4994700;28;19984;-69
2023/03/28 02:30:24;;;;;;;9.77;5.68;;;5.60;99.90;;;5.79;74.34;102471.84;4994744;28;20185;-68
2023/03/28 02:32:59;;;;;;;8.55;5.70;;;5.50;99.90;;;5.82;74.27;102475.50;4993366;28;20042;-69
2023/03/28 02:35:50;;;;;;;12.38;6.10;;;5.50;99.90;;;5.82;73.95;102477.22;4993178;28;20054;-69
2023/03/28 02:38:30;;;;;;;11.82;5.68;;;5.60;99.90;;;5.21;74.13;102363.59;4993239;28;20046;-68
2023/03/28 02:41:10;;;;;;;11.20;5.85;;;5.60;99.90;;;5.91;73.22;102486.41;4994389;28;20039;-68
2023/03/28 02:44:18;;;;;;;7.95;5.47;;;5.60;99.90;;;5.86;72.31;102471.28;4994277;28;20451;-68
2023/03/28 02:46:57;;;;;;;9.95;5.88;;;5.70;99.90;;;5.89;71.28;102484.53;4989410;28;20562;-68
2023/03/28 02:49:44;;;;;;;11.75;6.53;;;5.70;99.90;;;5.95;70.84;102480.44;4992899;28;20053;-68
2023/03/28 02:52:33;;;;;;;9.27;5.45;;;5.70;99.90;;;6.01;70.30;102475.44;4992897;28;20054;-68
2023/03/28 02:55:11;;;;;;;10.20;6.07;;;5.80;99.90;;;5.89;69.66;102443.41;4994362;28;20459;-68
2023/03/28 02:57:58;;;;;;;12.77;6.05;;;5.80;99.90;;;6.07;69.55;102470.41;4992913;28;20419;-68
2023/03/28 03:00:28;;;;;;;10.40;6.07;;;5.90;99.90;;;6.17;69.08;102469.94;4994089;28;20042;-69
2023/03/28 03:02:57;;;;;;;7.30;5.60;;;5.90;99.90;;;6.20;68.90;102475.31;4993834;28;20519;-69
2023/03/28 03:05:26;;;;;;;10.23;5.13;;;6.00;99.90;;;6.22;68.78;102472.75;4994185;28;20043;-68
2023/03/28 03:07:54;;;;;;;10.35;5.63;;;6.00;99.90;;;6.24;68.63;102469.34;4992511;28;20069;-68
2023/03/28 03:10:24;;;;;;;9.43;5.18;;;6.00;99.90;;;6.11;68.05;102438.19;4991811;28;20085;-68
2023/03/28 03:12:53;;;;;;;11.63;6.38;;;6.00;99.90;;;6.28;67.96;102467.72;4994106;28;20484;-68
2023/03/28 03:15:21;;;;;;;10.88;5.43;;;6.10;99.90;;;6.33;68.07;102466.16;4992245;28;20057;-68
2023/03/28 03:17:59;;;;;;;13.25;5.00;;;6.10;99.90;;;6.30;68.24;102468.69;4992884;28;20062;-68
2023/03/28 03:20:32;;;;;;;9.13;5.65;;;6.10;99.90;;;6.30;68.20;102469.59;4992569;28;20054;-68
2023/03/28 03:23:01;;;;;;;10.95;5.85;;;6.10;99.90;;;6.34;68.26;102466.25;4992328;28;20496;-68
2023/03/28 03:25:33;;;;;;;14.55;6.13;;;6.10;99.90;;;6.34;68.45;102465.34;4992450;28;20034;-68
2023/03/28 03:28:12;;;;;;;12.95;5.40;;;6.10;99.90;;;6.37;68.43;102463.72;4992174;28;20496;-69
2023/03/28 03:30:42;;;;;;;9.75;5.45;;;6.10;99.90;;;6.34;68.25;102460.06;4993438;28;20054;-68
2023/03/28 03:33:37;;;;;;;10.35;5.28;;;6.20;99.90;;;6.38;68.55;102461.97;4992173;28;20050;-68
2023/03/28 03:36:11;;;;;;;8.20;5.38;;;6.10;99.90;;;6.35;69.06;102456.59;4992038;28;20506;-68
2023/03/28 03:38:40;;;;;;;11.13;6.13;;;6.10;99.90;;;6.32;69.32;102453.88;4992176;28;20050;-68
2023/03/28 03:41:14;;;;;;;7.57;5.32;;;6.10;99.90;;;6.20;69.83;102449.03;4992155;28;20496;-68
2023/03/28 03:43:42;;;;;;;12.18;5.68;;;6.00;99.90;;;6.26;69.76;102451.00;4991928;28;20435;-68
2023/03/28 03:46:13;;;;;;;11.73;5.38;;;6.00;99.90;;;6.20;69.93;102450.75;4993226;28;20046;-69
2023/03/28 03:48:42;;;;;;;9.32;5.43;;;6.00;99.90;;;6.18;70.09;102441.94;4991780;28;20100;-69
2023/03/28 03:51:17;;;;;;;12.57;6.20;;;6.00;99.90;;;6.19;70.17;102451.63;4991736;28;20518;-68
2023/03/28 03:53:49;;;;;;;9.10;5.60;;;5.90;99.90;;;6.18;70.41;102452.44;4991933;28;20050;-68
2023/03/28 03:56:21;;;;;;;12.65;5.65;;;5.90;99.90;;;6.28;70.76;102452.88;4991861;28;20563;-68
2023/03/28 03:58:55;;;;;;;12.85;5.80;;;6.00;99.90;;;6.38;70.81;102440.97;4991791;28;20049;-68
2023/03/28 04:01:28;;;;;;;7.82;5.20;;;6.10;99.90;;;6.47;70.61;102443.03;4991576;28;20077;-68
2023/03/28 04:04:08;;;;;;;11.27;5.43;;;6.20;99.90;;;6.49;70.23;102449.22;4991542;28;20049;-68
2023/03/28 04:06:57;;;;;;;15.15;6.18;;;6.30;99.90;;;6.45;70.49;102448.22;4991495;28;20089;-68
2023/03/28 04:09:26;;;;;;;;;;;6.20;99.90;;;6.19;70.71;102420.09;4992056;28;20046;-68
2023/03/28 04:12:07;;;;;;;12.95;6.35;;;6.20;99.90;;;6.35;70.68;102449.63;4993347;28;19926;-68
2023/03/28 04:14:46;;;;;;;11.82;5.43;;;6.10;99.90;;;6.39;70.19;102448.00;4991472;28;20066;-68
2023/03/28 04:17:35;;;;;;;11.77;5.28;;;6.20;99.90;;;6.45;70.11;102457.84;4992438;28;20441;-69
2023/03/28 04:20:18;;;;;;;14.95;5.55;;;6.20;99.90;;;6.47;70.08;102451.81;4991118;28;20066;-68
2023/03/28 04:23:07;;;;;;;16.90;6.30;;;6.20;99.90;;;6.48;69.83;102448.34;4993060;28;20177;-68
2023/03/28 04:25:36;;;;;;;11.48;5.45;;;6.20;99.90;;;6.49;69.72;102451.84;4991485;28;20137;-68
2023/03/28 04:28:33;;;;;;;13.40;5.35;;;6.30;99.90;;;6.56;69.51;102446.91;4979532;28;20078;-68
2023/03/28 04:31:06;;;;;;;12.80;5.38;;;6.30;99.90;;;6.55;69.38;102450.38;4991666;28;20416;-68
2023/03/28 04:33:44;;;;;;;17.17;6.45;;;6.30;99.90;;;6.60;69.74;102442.66;4992726;28;20050;-68
2023/03/28 04:36:17;;;;;;;11.90;6.13;;;6.40;99.90;;;6.64;69.50;102441.94;4991391;28;20137;-68
2023/03/28 04:39:00;;;;;;;12.63;5.90;;;6.40;99.90;;;6.64;69.49;102449.81;4991254;28;20101;-68
2023/03/28 04:41:54;;;;;;;11.55;5.85;;;6.40;99.90;;;6.55;69.59;102450.38;4991516;28;20050;-68
2023/03/28 04:44:30;;;;;;;14.57;6.80;;;6.30;99.90;;;6.52;69.89;102449.38;4991197;28;20046;-69
2023/03/28 04:47:03;;;;;;;12.10;6.15;;;6.30;99.90;;;6.38;69.99;102441.88;4991211;28;20046;-68
2023/03/28 04:49:32;;;;;;;12.70;5.97;;;6.20;99.90;;;6.36;70.37;102445.25;4991292;28;20046;-68
2023/03/28 04:52:02;;;;;;;11.05;6.10;;;6.10;99.90;;;6.35;70.47;102451.34;4991464;28;20061;-68
2023/03/28 04:54:30;;;;;;;12.25;6.05;;;6.10;99.90;;;6.28;70.88;102442.34;4991406;28;20066;-68
2023/03/28 04:57:10;;;;;;;9.68;6.05;;;6.10;99.90;;;6.22;70.90;102447.38;4991562;28;20481;-68
2023/03/28 04:59:48;;;;;;;12.93;5.78;;;6.00;99.90;;;6.22;71.66;102444.75;4991365;28;20046;-68
2023/03/28 05:02:54;;;;;;;12.45;5.55;;;6.00;99.90;;;6.23;71.72;102446.50;4951525;29;20083;-68
2023/03/28 05:05:23;;;;;;;11.90;6.72;;;6.00;99.90;;;6.20;72.22;102441.16;4980820;28;20050;-68
2023/03/28 05:07:54;;;;;;;13.80;6.30;;;6.00;99.90;;;6.25;71.96;102434.34;4991519;28;20116;-68
2023/03/28 05:10:22;;;;;;;9.00;5.60;;;6.00;99.90;;;6.23;72.55;102443.88;4991756;28;20101;-68
2023/03/28 05:12:51;;;;;;;14.57;6.93;;;6.00;99.90;;;6.21;72.76;102436.81;4991477;28;20514;-68
2023/03/28 05:15:22;;;;;;;13.82;6.32;;;5.90;99.90;;;6.21;72.82;102437.69;4992532;28;20049;-68
2023/03/28 05:18:04;;;;;;;14.70;6.43;;;6.00;99.90;;;6.22;72.52;102443.84;4990926;28;20046;-68
2023/03/28 05:20:36;;;;;;;15.13;7.30;;;6.00;99.90;;;6.19;72.90;102452.47;4991031;28;20475;-68
2023/03/28 05:23:06;;;;;;;15.55;6.78;;;6.00;99.90;;;6.23;72.68;102454.41;4991047;28;20082;-68
2023/03/28 05:25:39;;;;;;;10.82;6.90;;;6.00;99.90;;;6.17;72.99;102450.66;4990977;28;20562;-68
2023/03/28 05:28:07;;;;;;;15.43;7.50;;;6.00;99.90;;;6.15;72.73;102447.06;4990866;28;20144;-68
2023/03/28 05:30:45;;;;;;;13.98;6.95;;;6.00;99.90;;;6.00;73.15;102436.84;4991053;28;20499;-68
2023/03/28 05:33:14;;;;;;;14.73;6.95;;;6.00;99.90;;;6.18;73.11;102458.59;4993714;28;20569;-68
2023/03/28 05:35:43;;;;;;;14.95;7.25;;;6.00;99.90;;;6.11;72.90;102446.06;4994659;28;20508;-68
2023/03/28 05:38:15;;;;;;;17.95;7.65;;;5.90;99.90;;;6.12;73.29;102458.34;4994196;28;20053;-68
2023/03/28 05:40:45;;;;;;;16.80;6.75;;;5.90;99.90;;;6.12;73.14;102450.47;4994402;28;20042;-68
2023/03/28 05:43:14;;;;;;;11.93;6.63;;;6.00;99.90;;;6.17;73.04;102455.91;4994296;28;20153;-68
2023/03/28 05:45:42;;;;;;;17.88;6.53;;;6.00;99.90;;;6.24;72.89;102458.84;4993936;28;20047;-68
2023/03/28 05:48:18;;;;;;;14.60;6.47;;;6.10;99.90;;;6.26;72.72;102458.88;4994243;28;20081;-68
2023/03/28 05:50:49;;;;;;;13.40;6.75;;;6.10;99.90;;;6.27;72.91;102447.56;4994239;28;20057;-68
2023/03/28 05:53:19;;;;;;;15.27;6.43;;;6.10;99.90;;;6.30;72.67;102451.19;4993889;28;20046;-68
2023/03/28 05:55:48;;;;;;;16.85;7.15;;;6.20;99.90;;;6.43;72.55;102472.69;4993858;28;20050;-68
2023/03/28 05:58:18;;;;;;;15.65;6.60;;;6.30;99.90;;;6.50;71.61;102453.66;4994030;28;20073;-68
2023/03/28 06:00:47;;;;;;;16.73;7.45;;;6.40;99.90;;;6.65;71.56;102452.50;4994627;28;20455;-69
2023/03/28 06:03:16;;;;;;;14.40;5.38;;;6.50;99.90;;;6.82;70.79;102459.25;4994236;28;20109;-68
2023/03/28 06:05:47;;;;;;;11.32;6.30;;;6.60;99.90;;;6.91;70.70;102462.22;4993963;28;20047;-69
2023/03/28 06:08:24;;;;;;;15.05;6.35;;;6.70;99.90;;;6.98;70.12;102461.63;4993741;28;20059;-69
2023/03/28 06:10:53;;;;;;;14.32;5.95;;;6.80;99.90;;;6.28;70.38;102345.13;4993901;28;20047;-69
2023/03/28 06:13:26;;;;;;;17.55;6.60;;;6.80;99.90;;;6.95;69.93;102469.38;4993672;28;20101;-69
2023/03/28 06:15:55;;;;;;;18.30;6.68;;;6.80;99.90;;;6.93;69.97;102470.19;4993248;28;20053;-68
2023/03/28 06:18:33;;;;;;;17.38;6.80;;;6.70;99.90;;;6.92;69.86;102469.28;4993237;28;20050;-69
2023/03/28 06:21:01;;;;;;;19.60;6.25;;;6.70;99.90;;;6.82;70.27;102466.25;4993045;28;20042;-69
2023/03/28 06:23:31;;;;;;;14.23;6.78;;;6.70;99.90;;;6.93;70.19;102464.94;4993442;28;20077;-68
2023/03/28 06:26:01;;;;;;;14.35;7.45;;;6.70;99.90;;;7.10;70.36;102469.91;4993446;28;20054;-69
2023/03/28 06:28:36;;;;;;;17.85;6.90;;;6.90;99.90;;;7.38;69.74;102470.88;4993320;28;20097;-69
2023/03/28 06:31:19;;;;;;;12.93;6.65;;;7.10;99.90;;;7.47;68.88;102464.19;4993358;28;20054;-69
2023/03/28 06:33:48;;;;;;;13.15;6.90;;;7.30;99.90;;;7.40;68.90;102430.59;4993073;28;20089;-69
2023/03/28 06:36:20;;;;;;;16.27;6.55;;;7.40;99.90;;;7.84;68.44;102447.88;4993537;28;20084;-69
2023/03/28 06:38:52;;;;;;;16.48;6.85;;;7.70;99.90;;;7.91;68.00;102460.38;4993222;28;20050;-65
2023/03/28 06:41:21;;;;;;;21.63;6.70;;;7.80;99.90;;;8.00;67.58;102464.19;4993067;28;20109;-66
2023/03/28 06:43:50;;;;;;;17.45;7.13;;;7.80;99.90;;;8.06;67.28;102461.75;4992868;28;20058;-67
2023/03/28 06:46:50;;;;;;;;;;;7.90;99.90;;;8.23;67.28;102464.03;4982411;28;20054;-68
2023/03/28 06:49:20;;;;;;;15.85;6.65;;;8.10;99.90;;;8.36;67.26;102467.13;4992898;28;19977;-68
2023/03/28 06:52:27;;;;;;;15.73;6.18;;;8.20;99.90;;;8.48;67.09;102467.47;4976197;28;20081;-68
2023/03/28 06:54:59;;;;;;;10.77;6.60;;;8.30;99.90;;;8.59;66.98;102465.16;4992922;28;20479;-67
2023/03/28 06:57:27;;;;;;;19.33;7.97;;;8.40;99.90;;;8.76;66.82;102463.91;4994438;28;20456;-69
2023/03/28 07:00:10;;;;;;;18.67;7.65;;;8.50;99.90;;;8.86;65.97;102460.66;4992807;28;20042;-70
2023/03/28 07:02:57;;;;;;;15.57;7.30;;;8.70;99.90;;;9.00;66.03;102465.47;4993962;28;20057;-70
2023/03/28 07:05:25;;;;;;;16.02;7.30;;;8.80;99.90;;;8.98;65.82;102466.31;4992767;28;20464;-70
2023/03/28 07:07:55;;;;;;;15.23;7.68;;;8.80;99.90;;;9.03;65.55;102462.94;4992552;28;20058;-70
2023/03/28 07:10:25;;;;;;;17.05;7.20;;;8.80;99.90;;;9.13;66.11;102464.06;4992594;28;20072;-71
2023/03/28 07:12:54;;;;;;;14.30;7.38;;;8.90;99.90;;;9.20;64.82;102463.38;4993803;28;20053;-71
2023/03/28 07:15:22;;;;;;;13.48;6.80;;;9.00;99.90;;;9.42;65.16;102472.75;4992501;28;20357;-70
2023/03/28 07:17:52;;;;;;;13.95;7.40;;;9.10;99.90;;;9.44;65.03;102473.69;4992460;28;20056;-68
2023/03/28 07:20:20;;;;;;;13.27;7.50;;;9.20;99.90;;;9.55;64.49;102474.84;4992451;28;20081;-69
2023/03/28 07:22:49;;;;;;;14.32;7.28;;;9.30;99.90;;;9.70;64.55;102473.47;4992444;28;20046;-69
2023/03/28 07:25:19;;;;;;;13.55;6.95;;;9.40;99.90;;;9.74;63.85;102466.50;4992231;28;20069;-70
2023/03/28 07:27:50;;;;;;;19.13;7.07;;;9.50;99.90;;;9.77;62.64;102464.88;4992045;28;20126;-66
2023/03/28 07:30:19;;;;;;;14.38;6.43;;;9.50;99.90;;;9.77;62.70;102454.31;4992461;28;20046;-65
2023/03/28 07:32:47;;;;;;;16.13;7.05;;;9.50;99.90;;;9.67;60.78;102461.94;4992274;28;20039;-69
2023/03/28 07:35:27;;;;;;;14.37;6.40;;;9.40;99.90;;;9.69;60.21;102463.78;4992287;28;20081;-70
2023/03/28 07:37:56;;;;;;;13.80;6.57;;;9.40;99.90;;;9.60;59.77;102460.91;4993280;28;20277;-71
2023/03/28 07:40:34;;;;;;;14.40;6.95;;;9.40;99.90;;;9.56;59.47;102463.44;4991805;28;20086;-71
2023/03/28 07:43:05;;;;;;;12.88;6.28;;;9.30;99.90;;;9.50;58.84;102456.25;4992172;28;20145;-68
2023/03/28 07:45:33;;;;;;;;;;;9.20;99.90;;;9.50;59.51;102455.34;4992383;28;20104;-69
2023/03/28 07:48:03;;;;;;;11.20;6.10;;;9.30;99.90;;;9.35;59.81;102433.84;4991973;28;19922;-70
2023/03/28 07:50:34;;;;;;;16.60;5.57;;;9.30;99.90;;;9.40;59.18;102453.34;4991985;28;20054;-69
2023/03/28 07:53:03;;;;;;;12.35;5.30;;;9.20;99.90;;;9.23;58.84;102452.00;4993318;28;20064;-71
2023/03/28 07:55:37;;;;;;;13.57;5.43;;;9.10;99.90;;;9.17;58.03;102452.75;4991563;28;20145;-70
2023/03/28 07:58:10;;;;;;;12.10;5.63;;;9.00;99.90;;;9.19;59.24;102450.13;4992332;28;20120;-69
2023/03/28 08:00:44;;;;;;;12.38;5.70;;;9.00;99.90;;;9.20;58.98;102455.44;4991914;28;20046;-69
2023/03/28 08:03:31;;;;;;;10.93;5.70;;;9.00;99.90;;;9.06;59.84;102447.16;4992894;28;20038;-69
2023/03/28 08:06:04;;;;;;;14.13;6.45;;;8.90;99.90;;;9.04;60.75;102432.13;4991851;28;20038;-69
2023/03/28 08:08:44;;;;;;;11.50;6.00;;;9.00;99.90;;;9.24;61.35;102457.31;4991220;28;20076;-69
2023/03/28 08:11:37;;;;;;;13.38;5.80;;;9.10;99.90;;;9.14;61.16;102463.19;4984492;28;20137;-69
2023/03/28 08:14:11;;;;;;;13.20;6.05;;;9.00;99.90;;;9.03;60.91;102462.94;4992842;28;20046;-69
2023/03/28 08:16:41;;;;;;;14.77;6.38;;;8.90;99.90;;;9.06;60.88;102464.72;4991580;28;20400;-69
2023/03/28 08:19:10;;;;;;;13.52;6.53;;;8.80;99.90;;;8.90;61.87;102441.44;4991574;28;20062;-69
2023/03/28 08:22:01;;;;;;;12.38;6.07;;;8.80;99.90;;;8.95;60.70;102467.09;4971776;28;20064;-69
2023/03/28 08:24:35;;;;;;;10.73;6.28;;;8.80;99.90;;;8.88;59.68;102451.91;4991627;28;20388;-68
2023/03/28 08:27:11;;;;;;;10.82;6.18;;;8.70;99.90;;;8.84;58.85;102462.38;4991413;28;20465;-68
2023/03/28 08:29:43;;;;;;;10.75;6.45;;;8.60;99.90;;;8.76;59.33;102463.91;4991535;28;20078;-68
2023/03/28 08:32:12;;;;;;;13.77;6.70;;;8.60;99.90;;;8.84;58.94;102459.72;4991373;28;20050;-68
2023/03/28 08:34:40;;;;;;;18.27;7.40;;;8.70;99.90;;;8.81;59.07;102457.88;4992662;28;20403;-68
2023/03/28 08:37:15;;;;;;;16.98;8.05;;;8.60;99.90;;;8.67;58.04;102446.03;4991471;28;20081;-68
2023/03/28 08:39:47;;;;;;;17.33;8.13;;;8.50;99.90;;;8.49;56.55;102461.34;4992813;28;20443;-68
2023/03/28 08:42:45;;;;;;;16.08;8.25;;;8.40;99.90;;;8.43;56.77;102452.38;4991458;28;20053;-68
2023/03/28 08:45:42;;;;;;;19.33;8.20;;;8.40;99.90;;;8.50;56.36;102463.13;4991327;28;20129;-68
2023/03/28 08:48:25;;;;;;;16.30;8.68;;;8.40;99.90;;;8.54;56.49;102451.81;4991608;28;20495;-68
2023/03/28 08:51:01;;;;;;;19.55;8.18;;;8.40;99.90;;;8.57;56.94;102457.22;4991602;28;20515;-68
2023/03/28 08:53:36;;;;;;;16.33;8.10;;;8.40;99.90;;;8.58;55.52;102484.44;4991363;28;20073;-68
2023/03/28 08:56:07;;;;;;;18.80;8.57;;;8.40;99.90;;;8.67;56.05;102450.44;4992513;28;20047;-68
2023/03/28 08:58:46;;;;;;;14.38;7.75;;;8.50;99.90;;;8.77;55.50;102448.09;4991316;28;20077;-68
2023/03/28 09:01:19;;;;;;;19.38;8.10;;;8.60;99.90;;;8.76;56.13;102450.69;4991315;28;20061;-68
2023/03/28 09:03:48;;;;;;;19.45;7.43;;;8.60;99.90;;;8.81;54.86;102451.72;4992666;28;20054;-68
2023/03/28 09:06:28;;;;;;;14.98;7.20;;;8.60;99.90;;;8.71;54.52;102462.88;4991614;28;20051;-68
2023/03/28 09:09:16;;;;;;;16.45;7.18;;;8.60;99.90;;;8.74;55.65;102436.56;4994177;28;20107;-68
2023/03/28 09:12:03;;;;;;;13.40;6.40;;;8.50;99.90;;;8.81;56.66;102430.59;4994837;28;20105;-68
2023/03/28 09:15:32;;;;;;;15.18;6.28;;;8.60;99.90;;;8.87;56.73;102442.22;4994863;28;20541;-68
2023/03/28 09:18:24;;;;;;;10.90;6.63;;;8.60;99.90;;;8.84;56.51;102433.34;4955017;29;20079;-68
2023/03/28 09:20:58;;;;;;;13.05;6.45;;;8.80;99.90;;;8.59;54.89;102444.06;4938738;29;20057;-68
2023/03/28 09:24:11;;;;;;;11.50;5.45;;;8.60;99.90;;;8.30;53.56;102429.13;4978592;28;20049;-68
2023/03/28 09:26:50;;;;;;;11.13;6.20;;;8.20;99.90;;;8.33;53.97;102437.13;4995668;28;20046;-68
2023/03/28 09:29:27;;;;;;;14.30;5.97;;;8.20;99.90;;;8.14;54.42;102425.09;4994626;28;20137;-68
2023/03/28 09:32:01;;;;;;;13.13;6.35;;;8.00;99.90;;;8.24;54.14;102427.16;4994565;28;20060;-68
2023/03/28 09:34:40;;;;;;;11.57;6.45;;;8.10;99.90;;;8.33;54.95;102416.91;4994891;28;20440;-68
2023/03/28 09:37:21;;;;;;;13.00;6.07;;;8.20;99.90;;;8.24;55.82;102419.25;4994289;28;20101;-69
2023/03/28 09:39:52;;;;;;;12.30;6.20;;;8.20;99.90;;;8.36;55.39;102421.41;4994496;28;20416;-68
2023/03/28 09:42:34;;;;;;;9.68;5.60;;;8.20;99.90;;;8.37;53.23;102424.06;4994340;28;20058;-68
2023/03/28 09:45:39;;;;;;;12.38;5.78;;;8.30;99.90;;;8.35;53.51;102424.88;4994252;28;20510;-68
2023/03/28 09:48:16;;;;;;;10.98;6.15;;;8.20;99.90;;;8.34;51.99;102405.53;4994869;28;20077;-69
2023/03/28 09:50:49;;;;;;;11.38;5.50;;;8.20;99.90;;;8.28;52.73;102408.00;4994318;28;20476;-68
2023/03/28 09:53:23;;;;;;;11.05;6.53;;;8.20;99.90;;;8.45;55.29;102406.75;4994248;28;20046;-69
2023/03/28 09:55:54;;;;;;;13.75;5.65;;;8.20;99.90;;;8.16;52.92;102397.97;4995218;28;20467;-69
2023/03/28 09:58:53;;;;;;;8.88;5.63;;;8.10;99.90;;;8.21;53.79;102383.16;4994152;28;20082;-69
2023/03/28 10:01:41;;;;;;;11.35;6.43;;;8.10;99.90;;;8.23;53.70;102396.38;4993844;28;20130;-68
2023/03/28 10:04:35;;;;;;;10.65;6.25;;;8.10;99.90;;;8.04;55.76;102387.03;4994983;28;20057;-68
2023/03/28 10:07:33;;;;;;;9.75;6.20;;;8.00;99.90;;;7.77;53.21;102409.91;4995156;28;20121;-68
2023/03/28 10:10:23;;;;;;;11.77;5.65;;;7.70;99.90;;;7.57;51.41;102350.44;4984361;28;20146;-67
2023/03/28 10:13:03;;;;;;;11.82;5.63;;;7.70;99.90;;;7.97;50.54;102400.88;4994041;28;20503;-67
2023/03/28 10:15:42;;;;;;;9.65;5.85;;;7.80;99.90;;;7.91;50.93;102384.88;4994135;28;20082;-67
2023/03/28 10:18:19;;;;;;;8.63;5.30;;;7.80;99.90;;;7.93;50.99;102369.13;4994788;28;20408;-67
2023/03/28 10:21:09;;;;;;;13.98;5.50;;;7.90;99.90;;;7.77;49.58;102377.38;4993715;28;20411;-67
2023/03/28 10:23:42;;;;;;;;;;;7.70;99.90;;;7.82;50.55;102347.69;4994137;28;20062;-67
2023/03/28 10:26:13;;;;;;;6.63;5.13;;;7.70;99.90;;;7.67;49.03;102363.03;4993461;28;19933;-67
2023/03/28 10:28:43;;;;;;;;;;;7.70;99.90;;;7.73;52.30;102354.44;4993500;28;20054;-67
2023/03/28 10:31:27;;;;;;;8.52;5.60;;;7.60;99.90;;;7.70;50.38;102336.81;4993173;28;19925;-68
2023/03/28 10:34:25;;;;;;;7.90;5.78;;;7.60;99.90;;;7.64;49.35;102328.72;4993221;28;20050;-67
2023/03/28 10:37:03;;;;;;;11.80;6.95;;;7.70;99.90;;;7.84;50.85;102331.97;4994425;28;20054;-67
2023/03/28 10:40:04;;;;;;;10.50;6.60;;;7.80;99.90;;;8.27;53.89;102329.75;4993088;28;20050;-68
2023/03/28 10:43:12;;;;;;;;;;;8.00;99.90;;;8.42;54.91;102318.75;4953912;29;20444;-67
2023/03/28 10:46:20;;;;;;;12.88;6.93;;;8.20;99.90;;;8.89;53.41;102340.25;4934020;29;20072;-67
2023/03/28 10:49:14;;;;;;;18.70;7.70;;;8.70;99.90;;;8.90;52.87;102328.84;4989540;28;20057;-67
2023/03/28 10:51:47;;;;;;;9.23;7.18;;;8.80;99.90;;;8.97;53.28;102336.09;4993070;28;20145;-68
2023/03/28 10:54:35;;;;;;;14.43;7.07;;;8.90;99.90;;;8.94;53.07;102332.47;4992814;28;20113;-68
2023/03/28 10:57:13;;;;;;;14.27;7.78;;;8.80;99.90;;;8.47;54.76;102340.84;4992979;28;20461;-67
2023/03/28 10:59:53;;;;;;;14.80;8.20;;;8.40;99.90;;;8.63;54.66;102359.75;4992731;28;20046;-67
2023/03/28 11:03:07;;;;;;;16.17;8.50;;;8.50;99.90;;;8.68;53.55;102317.69;4992836;28;20137;-67
2023/03/28 11:05:51;;;;;;;13.50;7.85;;;8.50;99.90;;;8.39;54.26;102329.19;4994103;28;20054;-68
2023/03/28 11:08:51;;;;;;;18.65;8.43;;;8.30;99.90;;;8.34;56.29;102305.38;4992109;28;20132;-68